Time;durP1;ratioP1;P1;durP2;ratioP2;P2;SDS_P1;SDS_P2;PMS_P1;PMS_P2;Temp;Humidity;BMP_temperature;BMP_pressure;BME280_temperature;BME280_humidity;BME280_pressure;Samples;Min_cycle;Max_cycle;Signal;HPM_P1;HPM_P2
2023/10/03 00:00:24;;;;;;;9.47;5.03;;;16.50;99.90;;;;;;4914883;29;20286;-85
2023/10/03 00:03:00;;;;;;;12.67;5.27;;;16.40;99.90;;;;;;4899682;29;20195;-76
2023/10/03 00:05:31;;;;;;;9.87;5.20;;;16.40;99.90;;;;;;4915091;29;20183;-84
2023/10/03 00:08:03;;;;;;;8.27;4.90;;;16.40;99.90;;;;;;4914212;29;20226;-77
2023/10/03 00:10:39;;;;;;;8.97;5.43;;;16.30;99.90;;;;;;4914561;29;20214;-76
2023/10/03 00:13:17;;;;;;;10.53;5.90;;;16.40;99.90;;;;;;4914885;29;20542;-77
2023/10/03 00:15:54;;;;;;;11.93;6.07;;;16.50;99.90;;;;;;4913547;29;20195;-78
2023/10/03 00:18:37;;;;;;;9.93;6.00;;;16.20;99.90;;;;;;4913867;29;20196;-86
2023/10/03 00:21:05;;;;;;;10.13;5.80;;;16.30;99.90;;;;;;4914789;29;20254;-86
2023/10/03 00:23:44;;;;;;;8.87;5.50;;;16.30;99.90;;;;;;4896915;29;20313;-86
2023/10/03 00:26:15;;;;;;;10.57;5.97;;;16.20;99.90;;;;;;4914508;29;20200;-78
2023/10/03 00:28:51;;;;;;;11.37;6.00;;;16.20;99.90;;;;;;4914616;29;20201;-77
2023/10/03 00:31:20;;;;;;;9.93;5.60;;;16.10;99.90;;;;;;4914175;29;20198;-78
2023/10/03 00:33:50;;;;;;;10.40;6.07;;;16.10;99.90;;;;;;4914453;29;20357;-86
2023/10/03 00:36:27;;;;;;;11.07;6.33;;;16.10;99.90;;;;;;4897321;29;20681;-86
2023/10/03 00:38:55;;;;;;;11.47;5.93;;;16.10;99.90;;;;;;4916863;29;20203;-85
2023/10/03 00:41:26;;;;;;;13.63;6.17;;;15.90;99.90;;;;;;4918122;29;20229;-86
2023/10/03 00:44:06;;;;;;;13.43;6.47;;;15.90;99.90;;;;;;4918065;29;20206;-84
2023/10/03 00:46:36;;;;;;;12.00;6.17;;;15.90;99.90;;;;;;4918151;29;20196;-82
2023/10/03 00:49:14;;;;;;;11.50;6.37;;;15.90;99.90;;;;;;4918195;29;20207;-86
2023/10/03 00:51:53;;;;;;;12.40;6.30;;;16.00;99.90;;;;;;4900514;29;20255;-86
2023/10/03 00:54:27;;;;;;;11.87;6.87;;;15.80;99.90;;;;;;4900639;29;20196;-76
2023/10/03 00:57:15;;;;;;;10.90;6.37;;;15.80;99.90;;;;;;4917691;29;20199;-86
2023/10/03 00:59:45;;;;;;;11.93;6.27;;;15.80;99.90;;;;;;4916877;29;20192;-86
2023/10/03 01:02:24;;;;;;;12.27;6.60;;;15.70;99.90;;;;;;4916735;29;20224;-86
2023/10/03 01:05:07;;;;;;;13.00;6.67;;;15.80;99.90;;;;;;4917810;29;20231;-81
2023/10/03 01:07:41;;;;;;;12.07;6.00;;;15.80;99.90;;;;;;4916315;29;20694;-85
2023/10/03 01:10:19;;;;;;;10.53;6.20;;;15.70;99.90;;;;;;4917107;29;20230;-85
2023/10/03 01:12:49;;;;;;;10.77;6.57;;;15.60;99.90;;;;;;4918090;29;20251;-78
2023/10/03 01:15:26;;;;;;;11.07;6.60;;;15.60;99.90;;;;;;4917312;29;20200;-85
2023/10/03 01:17:57;;;;;;;10.93;6.60;;;15.70;99.90;;;;;;4899765;29;20213;-85
2023/10/03 01:20:34;;;;;;;14.37;6.83;;;15.50;99.90;;;;;;4916386;29;20206;-85
2023/10/03 01:23:14;;;;;;;13.10;6.60;;;15.50;99.90;;;;;;4917184;29;20195;-83
2023/10/03 01:25:47;;;;;;;11.77;6.50;;;15.50;99.90;;;;;;4917588;29;20714;-84
2023/10/03 01:28:20;;;;;;;13.20;6.60;;;15.50;99.90;;;;;;4917409;29;20222;-76
2023/10/03 01:30:59;;;;;;;11.07;7.03;;;15.50;99.90;;;;;;4916338;29;20275;-77
2023/10/03 01:33:27;;;;;;;12.37;6.93;;;15.40;99.90;;;;;;4917853;29;20209;-86
2023/10/03 01:36:04;;;;;;;10.80;6.50;;;15.30;99.90;;;;;;4917276;29;20225;-85
2023/10/03 01:38:33;;;;;;;12.23;6.97;;;15.30;99.90;;;;;;4899986;29;20538;-77
2023/10/03 01:41:09;;;;;;;12.40;7.07;;;15.30;99.90;;;;;;4916706;29;20234;-77
2023/10/03 01:43:38;;;;;;;10.60;6.77;;;15.30;99.90;;;;;;4916663;29;20191;-77
2023/10/03 01:46:17;;;;;;;10.33;6.60;;;15.20;99.90;;;;;;4917492;29;20195;-76
2023/10/03 01:48:57;;;;;;;16.13;7.30;;;15.20;99.90;;;;;;4916112;29;20188;-76
2023/10/03 01:51:30;;;;;;;10.83;7.20;;;15.20;99.90;;;;;;4917318;29;20732;-78
2023/10/03 01:54:01;;;;;;;14.47;7.23;;;15.30;99.90;;;;;;4916267;29;20214;-76
2023/10/03 01:56:30;;;;;;;11.77;7.20;;;15.30;99.90;;;;;;4916502;29;20658;-78
2023/10/03 01:59:08;;;;;;;13.50;7.50;;;15.20;99.90;;;;;;4916406;29;20190;-77
2023/10/03 02:01:40;;;;;;;12.10;7.23;;;15.20;99.90;;;;;;4916827;29;20559;-84
2023/10/03 02:04:20;;;;;;;11.53;7.13;;;15.30;99.90;;;;;;4916140;29;20282;-85
2023/10/03 02:06:54;;;;;;;12.07;7.20;;;15.10;99.90;;;;;;4915344;29;20694;-86
2023/10/03 02:09:29;;;;;;;12.07;7.03;;;15.20;99.90;;;;;;4916368;29;20555;-78
2023/10/03 02:12:06;;;;;;;13.33;7.50;;;15.20;99.90;;;;;;4916187;29;20275;-85
2023/10/03 02:14:49;;;;;;;12.83;7.80;;;15.20;99.90;;;;;;4915682;29;20207;-86
2023/10/03 02:17:21;;;;;;;11.33;6.83;;;15.10;99.90;;;;;;4915272;29;20282;-85
2023/10/03 02:20:20;;;;;;;12.10;7.50;;;15.20;99.90;;;;;;4915920;29;20176;-77
2023/10/03 02:22:54;;;;;;;12.60;7.10;;;15.20;99.90;;;;;;4916172;29;20210;-77
2023/10/03 02:25:27;;;;;;;13.07;7.17;;;15.20;99.90;;;;;;4915526;29;20250;-78
2023/10/03 02:27:59;;;;;;;13.77;7.20;;;15.20;99.90;;;;;;4915488;29;20200;-78
2023/10/03 02:30:36;;;;;;;15.40;7.50;;;15.20;99.90;;;;;;4915608;29;20564;-78
2023/10/03 02:33:14;;;;;;;10.27;6.60;;;15.20;99.90;;;;;;4898553;29;20207;-78
2023/10/03 02:36:11;;;;;;;12.33;7.07;;;15.20;99.90;;;;;;4915676;29;20324;-77
2023/10/03 02:38:45;;;;;;;10.47;6.63;;;15.20;99.90;;;;;;4916684;29;20196;-76
2023/10/03 02:41:19;;;;;;;12.77;6.80;;;15.20;99.90;;;;;;4915435;29;20246;-79
2023/10/03 02:43:50;;;;;;;12.67;7.10;;;15.20;99.90;;;;;;4916705;29;20615;-86
2023/10/03 02:46:34;;;;;;;12.37;7.10;;;15.20;99.90;;;;;;4915715;29;20187;-77
2023/10/03 02:49:11;;;;;;;13.60;7.57;;;15.30;99.90;;;;;;4916130;29;20619;-78
2023/10/03 02:51:49;;;;;;;12.60;7.17;;;15.20;99.90;;;;;;4914864;29;20270;-76
2023/10/03 02:54:22;;;;;;;11.00;6.53;;;15.10;99.90;;;;;;4915814;29;20250;-78
2023/10/03 02:56:57;;;;;;;11.30;6.63;;;15.10;99.90;;;;;;4915519;29;20198;-76
2023/10/03 02:59:29;;;;;;;11.83;7.43;;;15.10;99.90;;;;;;4915768;29;20331;-77
2023/10/03 03:02:02;;;;;;;11.53;6.80;;;15.00;99.90;;;;;;4914828;29;20208;-81
2023/10/03 03:04:43;;;;;;;10.93;7.00;;;15.10;99.90;;;;;;4914487;29;20746;-77
2023/10/03 03:07:32;;;;;;;11.60;7.07;;;15.00;99.90;;;;;;4915106;29;20213;-78
2023/10/03 03:10:03;;;;;;;11.00;6.67;;;15.10;99.90;;;;;;4914898;29;20223;-86
2023/10/03 03:12:49;;;;;;;12.00;7.03;;;15.00;99.90;;;;;;4898982;29;20208;-78
2023/10/03 03:15:35;;;;;;;12.43;6.90;;;15.00;99.90;;;;;;4913823;29;20242;-77
2023/10/03 03:18:19;;;;;;;11.00;6.53;;;15.00;99.90;;;;;;4898404;29;20219;-77
2023/10/03 03:20:57;;;;;;;11.43;7.30;;;15.00;99.90;;;;;;4915731;29;20468;-76
2023/10/03 03:23:35;;;;;;;12.30;6.87;;;14.90;99.90;;;;;;4897854;29;20214;-76
2023/10/03 03:26:36;;;;;;;14.57;7.37;;;14.90;99.90;;;;;;4867533;29;20214;-76
2023/10/03 03:29:22;;;;;;;12.47;7.20;;;14.90;99.90;;;;;;4914616;29;20207;-77
2023/10/03 03:31:55;;;;;;;11.37;6.83;;;14.90;99.90;;;;;;4914791;29;20655;-77
2023/10/03 03:34:25;;;;;;;10.70;6.30;;;14.90;99.90;;;;;;4914059;29;20196;-76
2023/10/03 03:37:14;;;;;;;14.93;7.13;;;14.90;99.90;;;;;;4914366;29;20242;-79
2023/10/03 03:39:53;;;;;;;13.87;7.30;;;15.00;99.90;;;;;;4897933;29;20204;-84
2023/10/03 03:42:38;;;;;;;14.27;7.37;;;14.80;99.90;;;;;;4898879;29;20359;-77
2023/10/03 03:45:13;;;;;;;11.70;7.20;;;14.80;99.90;;;;;;4914382;29;20260;-85
2023/10/03 03:47:43;;;;;;;13.87;7.40;;;14.70;99.90;;;;;;4915358;29;20223;-75
2023/10/03 03:50:21;;;;;;;11.70;6.83;;;14.70;99.90;;;;;;4914252;29;20199;-76
2023/10/03 03:53:02;;;;;;;11.43;7.00;;;14.60;99.90;;;;;;4915012;29;20290;-76
2023/10/03 03:55:42;;;;;;;12.67;7.53;;;14.60;99.90;;;;;;4899067;29;20227;-77
2023/10/03 03:58:18;;;;;;;10.63;7.13;;;14.60;99.90;;;;;;4914884;29;20199;-85
2023/10/03 04:00:51;;;;;;;12.73;7.43;;;14.60;99.90;;;;;;4914798;29;20192;-76
2023/10/03 04:03:24;;;;;;;11.80;7.27;;;14.50;99.90;;;;;;4914080;29;20247;-76
2023/10/03 04:05:57;;;;;;;13.93;7.83;;;14.50;99.90;;;;;;4914858;29;20222;-76
2023/10/03 04:08:26;;;;;;;12.97;6.90;;;14.50;99.90;;;;;;4915427;29;20278;-76
2023/10/03 04:11:09;;;;;;;13.97;7.27;;;14.50;99.90;;;;;;4914509;29;20207;-77
2023/10/03 04:13:49;;;;;;;12.93;8.00;;;14.40;99.90;;;;;;4917419;29;20202;-85
2023/10/03 04:16:22;;;;;;;14.67;7.70;;;14.40;99.90;;;;;;4902484;29;20646;-85
2023/10/03 04:19:00;;;;;;;11.77;7.23;;;14.40;99.90;;;;;;4901807;29;20202;-86
2023/10/03 04:21:40;;;;;;;11.63;6.87;;;14.40;99.90;;;;;;4917545;29;20238;-85
2023/10/03 04:24:15;;;;;;;12.43;7.47;;;14.40;99.90;;;;;;4918203;29;20611;-77
2023/10/03 04:26:53;;;;;;;14.53;7.57;;;14.40;99.90;;;;;;4917949;29;20554;-77
2023/10/03 04:29:35;;;;;;;11.83;7.50;;;14.40;99.90;;;;;;4918605;29;20762;-77
2023/10/03 04:32:14;;;;;;;12.83;7.00;;;14.30;99.90;;;;;;4917329;29;20205;-77
2023/10/03 04:34:54;;;;;;;12.33;7.20;;;14.40;99.90;;;;;;4917940;29;20221;-77
2023/10/03 04:37:31;;;;;;;11.00;7.20;;;14.30;99.90;;;;;;4918088;29;20227;-77
2023/10/03 04:40:06;;;;;;;13.93;7.67;;;14.30;99.90;;;;;;4918561;29;20191;-78
2023/10/03 04:42:45;;;;;;;12.83;7.37;;;14.30;99.90;;;;;;4917480;29;20245;-85
2023/10/03 04:45:22;;;;;;;13.63;7.57;;;14.40;99.90;;;;;;4918745;29;20214;-77
2023/10/03 04:47:53;;;;;;;13.63;7.70;;;14.30;99.90;;;;;;4901485;29;20192;-77
2023/10/03 04:50:25;;;;;;;14.10;7.90;;;14.30;99.90;;;;;;4918016;29;20196;-75
2023/10/03 04:52:54;;;;;;;13.40;7.83;;;14.20;99.90;;;;;;4918084;29;20601;-86
2023/10/03 04:55:23;;;;;;;15.47;7.30;;;14.20;99.90;;;;;;4917802;29;20205;-76
2023/10/03 04:57:56;;;;;;;13.50;7.70;;;14.20;99.90;;;;;;4917401;29;20184;-76
2023/10/03 05:00:24;;;;;;;13.97;7.80;;;14.20;99.90;;;;;;4917472;29;20787;-77
2023/10/03 05:02:56;;;;;;;11.90;7.50;;;14.20;99.90;;;;;;4900330;29;20279;-77
2023/10/03 05:05:26;;;;;;;14.40;7.53;;;14.20;99.90;;;;;;4917235;29;20192;-78
2023/10/03 05:08:00;;;;;;;13.53;8.00;;;14.20;99.90;;;;;;4917701;29;20626;-77
2023/10/03 05:10:33;;;;;;;12.80;8.00;;;14.10;99.90;;;;;;4917718;29;20222;-85
2023/10/03 05:13:06;;;;;;;16.63;7.73;;;14.10;99.90;;;;;;4917452;29;20270;-77
2023/10/03 05:15:34;;;;;;;14.93;8.20;;;14.10;99.90;;;;;;4918331;29;20657;-78
2023/10/03 05:18:06;;;;;;;13.27;7.80;;;14.10;99.90;;;;;;4918206;29;20578;-87
2023/10/03 05:20:37;;;;;;;12.07;7.57;;;14.10;99.90;;;;;;4918405;29;20251;-78
2023/10/03 05:23:10;;;;;;;11.93;7.30;;;14.20;99.90;;;;;;4918129;29;20242;-77
2023/10/03 05:25:42;;;;;;;14.33;8.07;;;14.30;99.90;;;;;;4916775;29;20210;-78
2023/10/03 05:28:12;;;;;;;13.63;8.17;;;14.20;99.90;;;;;;4899791;29;20201;-79
2023/10/03 05:30:45;;;;;;;14.80;8.13;;;14.20;99.90;;;;;;4916978;29;20662;-78
2023/10/03 05:33:12;;;;;;;13.97;7.53;;;14.40;99.90;;;;;;4917487;29;20211;-78
2023/10/03 05:35:49;;;;;;;11.70;7.30;;;14.30;99.90;;;;;;4917302;29;20204;-87
2023/10/03 05:38:19;;;;;;;12.43;7.50;;;14.20;99.90;;;;;;4900961;29;20238;-87
2023/10/03 05:40:52;;;;;;;13.73;7.67;;;14.20;99.90;;;;;;4917489;29;20203;-86
2023/10/03 05:43:43;;;;;;;15.53;8.30;;;14.40;99.90;;;;;;4917426;29;20222;-87
2023/10/03 05:46:15;;;;;;;12.17;7.27;;;14.40;99.90;;;;;;4900382;29;20201;-84
2023/10/03 05:48:53;;;;;;;13.07;7.27;;;14.60;99.90;;;;;;4886100;29;20309;-86
2023/10/03 05:51:23;;;;;;;12.27;6.97;;;14.60;99.90;;;;;;4918499;29;20234;-86
2023/10/03 05:53:54;;;;;;;14.50;7.43;;;14.60;99.90;;;;;;4917875;29;20200;-81
2023/10/03 05:56:21;;;;;;;14.00;7.03;;;14.70;99.90;;;;;;4917952;29;20204;-89
2023/10/03 05:58:51;;;;;;;13.90;7.30;;;14.80;99.90;;;;;;4917048;29;20180;-79
2023/10/03 06:01:20;;;;;;;14.20;7.30;;;14.90;99.90;;;;;;4917282;29;20199;-79
2023/10/03 06:03:50;;;;;;;15.57;7.53;;;14.90;99.90;;;;;;4916468;29;20680;-79
2023/10/03 06:06:21;;;;;;;11.40;6.73;;;14.90;99.90;;;;;;4917747;29;20624;-85
2023/10/03 06:08:49;;;;;;;10.07;6.50;;;15.00;99.90;;;;;;4901237;29;20196;-87
2023/10/03 06:11:21;;;;;;;12.90;6.57;;;15.10;99.90;;;;;;4917607;29;20188;-87
2023/10/03 06:13:48;;;;;;;11.50;6.53;;;15.10;99.90;;;;;;4917991;29;20247;-78
2023/10/03 06:16:17;;;;;;;10.80;6.43;;;15.20;99.90;;;;;;4899525;29;20203;-78
2023/10/03 06:18:45;;;;;;;13.13;6.30;;;15.30;99.90;;;;;;4917190;29;20560;-86
2023/10/03 06:21:13;;;;;;;11.73;6.20;;;15.40;99.90;;;;;;4916966;29;20227;-87
2023/10/03 06:23:41;;;;;;;11.77;6.47;;;15.40;99.90;;;;;;4900263;29;20231;-85
2023/10/03 06:26:09;;;;;;;10.10;5.70;;;15.60;99.90;;;;;;4917202;29;20286;-78
2023/10/03 06:28:37;;;;;;;10.43;6.03;;;15.70;99.90;;;;;;4916552;29;20278;-78
2023/10/03 06:31:06;;;;;;;10.83;6.00;;;15.80;99.90;;;;;;4916099;29;20188;-78
2023/10/03 06:33:34;;;;;;;11.27;6.03;;;15.90;99.90;;;;;;4915633;29;20211;-77
2023/10/03 06:36:03;;;;;;;9.10;5.60;;;15.90;99.90;;;;;;4915011;29;20574;-78
2023/10/03 06:38:32;;;;;;;11.63;5.87;;;16.00;99.90;;;;;;4898819;29;20265;-78
2023/10/03 06:41:07;;;;;;;12.50;5.90;;;16.10;99.90;;;;;;4915821;29;20200;-78
2023/10/03 06:43:50;;;;;;;13.03;5.47;;;16.30;99.90;;;;;;4899320;29;20355;-78
2023/10/03 06:46:18;;;;;;;9.37;5.50;;;16.40;99.90;;;;;;4915001;29;20196;-79
2023/10/03 06:48:52;;;;;;;9.57;5.90;;;16.50;99.90;;;;;;4916300;29;20226;-79
2023/10/03 06:51:21;;;;;;;13.27;5.87;;;16.60;99.90;;;;;;4915353;29;20294;-80
2023/10/03 06:53:52;;;;;;;12.43;5.83;;;16.70;99.90;;;;;;4916642;29;20211;-87
2023/10/03 06:56:20;;;;;;;10.93;5.80;;;16.80;99.90;;;;;;4916497;29;20223;-84
2023/10/03 06:58:49;;;;;;;10.70;5.73;;;16.80;99.90;;;;;;4917972;29;20684;-86
2023/10/03 07:01:17;;;;;;;11.30;5.67;;;16.90;99.90;;;;;;4916152;29;20274;-79
2023/10/03 07:03:48;;;;;;;10.50;5.53;;;16.90;99.90;;;;;;4915355;29;20271;-79
2023/10/03 07:06:20;;;;;;;8.40;5.20;;;16.90;99.90;;;;;;4915486;29;20208;-87
2023/10/03 07:08:58;;;;;;;12.43;5.73;;;17.00;99.90;;;;;;4899004;29;20238;-87
2023/10/03 07:11:29;;;;;;;12.87;5.97;;;17.20;99.90;;;;;;4916110;29;20260;-88
2023/10/03 07:14:15;;;;;;;14.53;5.97;;;17.20;99.90;;;;;;4917474;29;20212;-87
2023/10/03 07:16:46;;;;;;;10.23;5.60;;;17.30;99.90;;;;;;4916427;29;20199;-78
2023/10/03 07:19:15;;;;;;;10.20;5.50;;;17.50;99.90;;;;;;4915846;29;20635;-79
2023/10/03 07:21:45;;;;;;;10.67;5.40;;;17.50;99.90;;;;;;4915601;29;20254;-78
2023/10/03 07:24:13;;;;;;;13.77;5.37;;;17.60;99.90;;;;;;4915842;29;20270;-80
2023/10/03 07:26:47;;;;;;;9.53;5.33;;;17.60;99.90;;;;;;4900513;29;20259;-86
2023/10/03 07:29:19;;;;;;;10.43;5.30;;;17.70;99.90;;;;;;4897313;29;20381;-86
2023/10/03 07:31:47;;;;;;;10.40;5.47;;;17.80;99.90;;;;;;4916287;29;20195;-78
2023/10/03 07:34:18;;;;;;;11.53;5.70;;;17.90;99.90;;;;;;4915110;29;20196;-78
2023/10/03 07:36:48;;;;;;;10.40;5.10;;;18.00;99.90;;;;;;4914264;29;20290;-78
2023/10/03 07:39:20;;;;;;;9.40;4.87;;;18.10;99.90;;;;;;4916080;29;20202;-85
2023/10/03 07:41:51;;;;;;;10.77;5.30;;;18.10;99.90;;;;;;4898922;29;20286;-84
2023/10/03 07:44:22;;;;;;;10.23;5.27;;;18.10;99.90;;;;;;4899009;29;20249;-77
2023/10/03 07:47:07;;;;;;;9.37;4.73;;;18.30;99.90;;;;;;4915026;29;20192;-84
2023/10/03 07:49:37;;;;;;;9.10;4.70;;;18.50;99.90;;;;;;4915266;29;20195;-77
2023/10/03 07:52:04;;;;;;;10.90;5.37;;;18.60;99.90;;;;;;4914429;29;20212;-85
2023/10/03 07:54:37;;;;;;;10.50;5.00;;;18.60;99.90;;;;;;4914964;29;20282;-84
2023/10/03 07:57:05;;;;;;;13.47;5.17;;;18.60;99.90;;;;;;4916041;29;20192;-83
2023/10/03 07:59:33;;;;;;;8.83;4.97;;;18.70;99.90;;;;;;4915652;29;20200;-84
2023/10/03 08:02:05;;;;;;;11.03;5.10;;;19.00;99.90;;;;;;4900169;29;20502;-84
2023/10/03 08:04:33;;;;;;;9.60;4.77;;;19.40;99.90;;;;;;4916984;29;20196;-85
2023/10/03 08:07:07;;;;;;;8.03;4.70;;;20.00;99.90;;;;;;4899959;29;20212;-84
2023/10/03 08:09:35;;;;;;;9.20;5.03;;;20.70;99.90;;;;;;4915815;29;20714;-85
2023/10/03 08:12:11;;;;;;;9.90;4.70;;;21.40;99.90;;;;;;4914979;29;20218;-85
2023/10/03 08:14:40;;;;;;;9.47;5.00;;;21.70;99.90;;;;;;4914840;29;20190;-84
2023/10/03 08:17:12;;;;;;;8.73;4.63;;;21.90;99.90;;;;;;4916097;29;20195;-84
2023/10/03 08:19:45;;;;;;;9.70;4.90;;;22.30;99.90;;;;;;4898839;29;20192;-83
2023/10/03 08:22:15;;;;;;;10.20;5.10;;;22.50;99.90;;;;;;4915298;29;20641;-86
2023/10/03 08:24:46;;;;;;;12.67;4.63;;;22.70;99.90;;;;;;4915511;29;20196;-86
2023/10/03 08:27:18;;;;;;;9.47;4.80;;;22.90;99.90;;;;;;4898807;29;20644;-87
2023/10/03 08:30:03;;;;;;;9.67;5.00;;;23.00;99.90;;;;;;4900532;29;20191;-86
2023/10/03 08:32:39;;;;;;;10.53;4.73;;;23.20;99.90;;;;;;4883006;29;20266;-80
2023/10/03 08:35:16;;;;;;;13.93;5.03;;;23.50;99.90;;;;;;4915449;29;20187;-86
2023/10/03 08:37:47;;;;;;;9.13;4.97;;;23.80;99.90;;;;;;4898714;29;20233;-85
2023/10/03 08:40:22;;;;;;;11.77;5.50;;;24.00;99.90;;;;;;4898758;29;20199;-80
2023/10/03 08:42:55;;;;;;;8.98;5.30;;;23.90;99.90;;;;;;4897933;29;20243;-80
2023/10/03 08:45:25;;;;;;;9.10;4.97;;;23.80;99.90;;;;;;4898126;29;20207;-81
2023/10/03 08:47:55;;;;;;;6.72;4.75;;;24.10;99.90;;;;;;4882724;29;20214;-79
2023/10/03 08:50:37;;;;;;;10.75;5.40;;;24.20;99.90;;;;;;4898840;29;20191;-81
2023/10/03 08:53:17;;;;;;;9.88;4.80;;;24.20;99.90;;;;;;4898609;29;20215;-85
2023/10/03 08:55:48;;;;;;;10.13;4.47;;;24.30;99.90;;;;;;4898386;29;20198;-85
2023/10/03 08:58:18;;;;;;;10.82;5.10;;;24.70;99.90;;;;;;4898013;29;20568;-85
2023/10/03 09:01:17;;;;;;;9.30;5.28;;;25.10;99.90;;;;;;4900723;29;20568;-85
2023/10/03 09:03:51;;;;;;;10.40;4.88;;;25.50;99.90;;;;;;4918357;29;20627;-80
2023/10/03 09:06:28;;;;;;;17.25;5.35;;;25.80;99.90;;;;;;4918201;29;20303;-85
2023/10/03 09:09:08;;;;;;;10.48;5.35;;;25.80;99.90;;;;;;4917355;29;20278;-79
2023/10/03 09:11:37;;;;;;;11.02;5.80;;;25.90;99.90;;;;;;4886121;29;20204;-79
2023/10/03 09:14:09;;;;;;;9.88;5.40;;;26.30;99.90;;;;;;4901584;29;20208;-84
2023/10/03 09:16:42;;;;;;;9.77;5.35;;;26.50;99.90;;;;;;4900776;29;20290;-81
2023/10/03 09:19:13;;;;;;;11.93;5.72;;;26.70;99.90;;;;;;4917855;29;20191;-80
2023/10/03 09:21:41;;;;;;;11.88;5.70;;;26.80;99.90;;;;;;4918130;29;20215;-85
2023/10/03 09:24:17;;;;;;;8.30;4.97;;;27.00;99.90;;;;;;4900463;29;20601;-87
2023/10/03 09:27:07;;;;;;;9.90;4.82;;;27.30;99.90;;;;;;4901261;29;20203;-86
2023/10/03 09:29:49;;;;;;;11.52;5.13;;;27.10;99.90;;;;;;4916588;29;20195;-84
2023/10/03 09:32:23;;;;;;;10.98;5.93;;;27.50;99.90;;;;;;4917892;29;20187;-80
2023/10/03 09:35:00;;;;;;;8.85;5.28;;;27.70;99.90;;;;;;4901855;29;20191;-86
2023/10/03 09:37:30;;;;;;;9.95;5.38;;;27.90;99.90;;;;;;4917366;29;20224;-85
2023/10/03 09:40:01;;;;;;;10.75;5.57;;;27.40;99.90;;;;;;4900748;29;20238;-85
2023/10/03 09:42:32;;;;;;;9.38;5.03;;;27.50;99.90;;;;;;4917532;29;20208;-79
2023/10/03 09:45:06;;;;;;;9.65;5.45;;;27.60;99.90;;;;;;4917849;29;20187;-86
2023/10/03 09:47:39;;;;;;;12.43;5.47;;;27.60;99.90;;;;;;4900686;29;20207;-80
2023/10/03 09:50:12;;;;;;;10.48;5.35;;;27.90;99.90;;;;;;4917408;29;20340;-84
2023/10/03 09:52:50;;;;;;;10.25;5.20;;;27.90;99.90;;;;;;4917091;29;20195;-81
2023/10/03 09:55:26;;;;;;;8.95;5.18;;;28.40;99.90;;;;;;4900353;29;20199;-81
2023/10/03 09:58:04;;;;;;;11.32;5.60;;;28.20;99.90;;;;;;4917358;29;20196;-85
2023/10/03 10:00:53;;;;;;;10.80;5.47;;;28.30;99.90;;;;;;4900314;29;20543;-85
2023/10/03 10:03:37;;;;;;;11.43;5.65;;;28.30;99.90;;;;;;4917008;29;20302;-80
2023/10/03 10:06:37;;;;;;;9.68;5.28;;;28.70;99.90;;;;;;4916790;29;20717;-79
2023/10/03 10:09:28;;;;;;;9.27;5.53;;;28.80;99.90;;;;;;4900668;29;20195;-85
2023/10/03 10:12:21;;;;;;;8.95;5.10;;;28.90;99.90;;;;;;4916627;29;20191;-79
2023/10/03 10:15:00;;;;;;;11.15;5.57;;;29.20;99.90;;;;;;4901201;29;20282;-80
2023/10/03 10:17:45;;;;;;;9.13;5.32;;;29.40;99.90;;;;;;4916870;29;20196;-86
2023/10/03 10:20:38;;;;;;;11.80;5.40;;;29.10;99.90;;;;;;4900077;29;20203;-80
2023/10/03 10:23:13;;;;;;;12.18;5.80;;;29.80;99.90;;;;;;4916652;29;20243;-85
2023/10/03 10:26:00;;;;;;;8.98;5.60;;;29.90;99.90;;;;;;4916586;29;20192;-85
2023/10/03 10:28:34;;;;;;;11.23;5.45;;;30.00;99.90;;;;;;4900299;29;20191;-80
2023/10/03 10:31:17;;;;;;;11.98;5.47;;;30.20;99.90;;;;;;4916586;29;20202;-86
2023/10/03 10:33:46;;;;;;;9.15;5.28;;;30.60;99.90;;;;;;4916357;29;20192;-87
2023/10/03 10:36:18;;;;;;;10.40;5.60;;;30.60;99.90;;;;;;4898802;29;20246;-83
2023/10/03 10:38:52;;;;;;;9.20;5.28;;;30.90;99.90;;;;;;4899721;29;20274;-81
2023/10/03 10:41:36;;;;;;;10.30;4.90;;;31.30;98.90;;;;;;4916628;29;20283;-81
2023/10/03 10:44:16;;;;;;;10.90;5.30;;;31.70;97.90;;;;;;4915922;29;20215;-81
2023/10/03 10:46:52;;;;;;;8.38;4.90;;;31.70;97.00;;;;;;4915995;29;20677;-86
2023/10/03 10:49:44;;;;;;;9.15;5.03;;;31.70;96.00;;;;;;4916143;29;20282;-80
2023/10/03 10:52:17;;;;;;;9.20;5.30;;;31.50;95.70;;;;;;4842047;29;20301;-83
2023/10/03 10:54:49;;;;;;;9.90;5.05;;;31.70;95.90;;;;;;4857977;29;20237;-79
2023/10/03 10:57:18;;;;;;;11.93;5.35;;;31.60;94.40;;;;;;4859853;29;20219;-86
2023/10/03 10:59:53;;;;;;;10.25;4.90;;;31.50;94.90;;;;;;4858439;29;20348;-86
2023/10/03 11:02:22;;;;;;;11.30;5.68;;;31.90;94.60;;;;;;4857489;29;20229;-87
2023/10/03 11:05:01;;;;;;;9.50;5.07;;;32.30;93.20;;;;;;4858010;29;20266;-81
2023/10/03 11:07:36;;;;;;;8.82;4.97;;;32.30;93.70;;;;;;4843260;29;20601;-80
2023/10/03 11:10:12;;;;;;;10.18;5.10;;;32.30;92.50;;;;;;4857025;29;20641;-80
2023/10/03 11:13:07;;;;;;;9.65;5.30;;;32.30;92.50;;;;;;4841637;29;20226;-78
2023/10/03 11:15:37;;;;;;;12.77;5.30;;;32.70;91.70;;;;;;4856995;29;20285;-80
2023/10/03 11:18:05;;;;;;;9.55;5.20;;;32.10;91.80;;;;;;4857061;29;20200;-81
2023/10/03 11:20:41;;;;;;;9.95;4.90;;;32.00;91.50;;;;;;4857269;29;20289;-86
2023/10/03 11:23:18;;;;;;;14.35;5.50;;;31.70;91.90;;;;;;4856662;29;20233;-80
2023/10/03 11:26:00;;;;;;;8.77;5.18;;;32.30;91.50;;;;;;4840506;29;20244;-81
2023/10/03 11:28:52;;;;;;;8.95;4.70;;;32.60;90.70;;;;;;4865814;29;20243;-81
2023/10/03 11:31:30;;;;;;;10.75;4.80;;;32.70;90.20;;;;;;4898799;29;20203;-81
2023/10/03 11:34:00;;;;;;;10.38;4.82;;;32.90;90.20;;;;;;4898609;29;20290;-88
2023/10/03 11:36:41;;;;;;;10.15;4.75;;;33.20;88.50;;;;;;4882523;29;20215;-87
2023/10/03 11:39:23;;;;;;;14.00;5.03;;;33.50;87.10;;;;;;4898894;29;20191;-81
2023/10/03 11:42:21;;;;;;;9.82;4.75;;;34.00;85.70;;;;;;4899720;29;20192;-81
2023/10/03 11:45:18;;;;;;;8.52;4.63;;;34.80;83.20;;;;;;4837963;29;20553;-82
2023/10/03 11:48:17;;;;;;;7.78;4.43;;;35.80;81.30;;;;;;4837849;29;20206;-82
2023/10/03 11:51:18;;;;;;;9.45;4.50;;;36.40;77.70;;;;;;4780253;29;20337;-89
2023/10/03 11:53:49;;;;;;;9.45;4.40;;;36.10;74.20;;;;;;4765783;30;20213;-89
2023/10/03 11:56:41;;;;;;;9.45;4.40;;;34.70;77.10;;;;;;4765554;30;20345;-88
2023/10/03 11:59:20;;;;;;;8.93;4.25;;;34.60;76.50;;;;;;4765753;30;20244;-89
2023/10/03 12:02:00;;;;;;;7.63;4.45;;;35.00;76.10;;;;;;4764847;30;20209;-88
2023/10/03 12:04:59;;;;;;;8.20;4.30;;;34.30;76.20;;;;;;4765973;30;20258;-89
2023/10/03 12:08:20;;;;;;;8.02;4.30;;;34.80;76.60;;;;;;4788400;29;20257;-89
2023/10/03 12:11:59;;;;;;;;;;;;;;;;;;;;;
2023/10/03 12:15:32;;;;;;;7.80;4.20;;;34.80;74.60;;;;;;4687330;30;20324;-90
2023/10/03 12:18:08;;;;;;;9.32;4.43;;;33.80;75.50;;;;;;4780861;29;20266;-81
2023/10/03 12:20:45;;;;;;;8.35;4.10;;;33.50;75.80;;;;;;4819326;29;20242;-81
2023/10/03 12:23:24;;;;;;;9.65;4.07;;;33.20;77.80;;;;;;4892791;29;20240;-81
2023/10/03 12:28:58;;;;;;;6.88;3.78;;;32.50;78.10;;;;;;4877507;29;20204;-87
2023/10/03 12:31:41;;;;;;;10.10;4.03;;;32.10;79.90;;;;;;4879065;29;20289;-82
2023/10/03 12:34:19;;;;;;;8.90;4.43;;;31.70;80.40;;;;;;4878618;29;20204;-81
2023/10/03 12:37:07;;;;;;;8.05;4.28;;;31.10;82.60;;;;;;4896994;29;20715;-83
2023/10/03 12:39:48;;;;;;;8.95;4.57;;;30.50;84.10;;;;;;4867913;29;20590;-87
2023/10/03 12:42:16;;;;;;;7.82;4.30;;;29.70;86.60;;;;;;4881641;29;20660;-84
2023/10/03 12:44:52;;;;;;;7.25;4.22;;;29.50;87.50;;;;;;4881680;29;20314;-87
2023/10/03 12:47:29;;;;;;;7.47;3.92;;;29.40;87.60;;;;;;4882243;29;20244;-87
2023/10/03 12:49:59;;;;;;;9.10;4.10;;;29.90;87.20;;;;;;4896636;29;20263;-90
2023/10/03 12:52:34;;;;;;;7.95;4.30;;;29.90;86.70;;;;;;4897078;29;20812;-83
2023/10/03 12:55:07;;;;;;;10.02;4.40;;;30.30;87.00;;;;;;4881716;29;20228;-88
2023/10/03 12:57:51;;;;;;;8.40;4.15;;;30.20;86.60;;;;;;4893266;29;20205;-88
2023/10/03 13:00:29;;;;;;;6.13;4.10;;;29.90;86.20;;;;;;4881802;29;20276;-82
2023/10/03 13:03:02;;;;;;;7.43;3.90;;;29.60;87.40;;;;;;4879388;29;20213;-83
2023/10/03 13:05:35;;;;;;;8.82;3.80;;;29.30;86.60;;;;;;4879385;29;20197;-82
2023/10/03 13:08:06;;;;;;;6.85;3.72;;;28.50;87.80;;;;;;4879157;29;20296;-82
2023/10/03 13:10:34;;;;;;;7.75;3.67;;;28.30;89.30;;;;;;4880189;29;20288;-83
2023/10/03 13:13:05;;;;;;;8.13;3.92;;;28.40;90.00;;;;;;4879345;29;20211;-82
2023/10/03 13:15:49;;;;;;;10.15;4.10;;;28.50;89.90;;;;;;4879439;29;20209;-81
2023/10/03 13:18:18;;;;;;;7.65;3.75;;;28.50;90.00;;;;;;4879245;29;20293;-81
2023/10/03 13:20:48;;;;;;;7.18;3.90;;;28.50;89.80;;;;;;4880346;29;20722;-80
2023/10/03 13:23:19;;;;;;;6.70;3.72;;;28.30;90.00;;;;;;4879493;29;20723;-81
2023/10/03 13:25:49;;;;;;;8.52;4.05;;;28.40;90.10;;;;;;4880437;29;20533;-81
2023/10/03 13:28:18;;;;;;;7.25;4.05;;;28.30;90.10;;;;;;4880054;29;20201;-81